Time,TemperatureF,DewpointF,PressureIn,WindDirection,WindDirectionDegrees,WindSpeedMPH,WindSpeedGustMPH,Humidity,HourlyPrecipIn,Conditions,Clouds,dailyrainin,SoftwareType,DateUTC
2017-05-29 00:02:00,60.6,45.7,29.86,WNW,283,0.0,0.0,58,0.00,,,0.00,meteohub,2017-05-29 05:02:00,
2017-05-29 00:07:00,60.4,46.4,29.86,WNW,283,0.0,1.0,60,0.00,,,0.00,meteohub,2017-05-29 05:07:00,
2017-05-29 00:12:00,60.1,46.2,29.86,WNW,283,0.0,1.0,60,0.00,,,0.00,meteohub,2017-05-29 05:12:00,
2017-05-29 00:17:00,60.1,45.7,29.86,WNW,283,0.0,1.0,59,0.00,,,0.00,meteohub,2017-05-29 05:17:00,
2017-05-29 00:22:00,59.9,46.0,29.86,WNW,283,0.0,1.0,60,0.00,,,0.00,meteohub,2017-05-29 05:22:00,
2017-05-29 00:27:00,59.9,45.5,29.85,WNW,283,0.0,1.0,59,0.00,,,0.00,meteohub,2017-05-29 05:27:00,
2017-05-29 00:32:00,59.7,45.0,29.85,WNW,283,0.0,1.0,58,0.00,,,0.00,meteohub,2017-05-29 05:32:00,
2017-05-29 00:37:00,60.1,45.7,29.85,WNW,283,0.0,0.0,59,0.00,,,0.00,meteohub,2017-05-29 05:37:00,
2017-05-29 00:42:00,59.7,46.2,29.85,WSW,257,0.0,3.0,61,0.00,,,0.00,meteohub,2017-05-29 05:42:00,
2017-05-29 00:47:00,59.4,46.4,29.85,WSW,257,0.0,3.0,62,0.00,,,0.00,meteohub,2017-05-29 05:47:00,
2017-05-29 00:52:00,58.8,46.6,29.85,WSW,251,1.0,3.0,64,0.00,,,0.00,meteohub,2017-05-29 05:52:00,
2017-05-29 00:57:00,58.8,46.2,29.86,WSW,241,1.0,3.0,63,0.00,,,0.00,meteohub,2017-05-29 05:57:00,
2017-05-29 01:02:00,59.0,46.0,29.86,WSW,241,3.0,4.0,62,0.00,,,0.00,meteohub,2017-05-29 06:02:00,
2017-05-29 01:07:00,59.2,46.2,29.86,SW,217,1.0,4.0,62,0.00,,,0.00,meteohub,2017-05-29 06:07:00,
2017-05-29 01:12:00,59.4,46.4,29.86,SSW,211,1.0,4.0,62,0.00,,,0.00,meteohub,2017-05-29 06:12:00,
2017-05-29 01:17:00,59.4,45.9,29.85,SSW,211,0.0,3.0,61,0.00,,,0.00,meteohub,2017-05-29 06:17:00,
2017-05-29 01:22:00,59.4,45.9,29.85,SSW,211,0.0,3.0,61,0.00,,,0.00,meteohub,2017-05-29 06:22:00,
2017-05-29 01:27:00,59.2,45.7,29.86,SSW,211,2.0,2.0,61,0.00,,,0.00,meteohub,2017-05-29 06:27:00,
2017-05-29 01:32:00,59.4,45.9,29.86,WSW,252,3.0,3.0,61,0.00,,,0.00,meteohub,2017-05-29 06:32:00,
2017-05-29 01:37:00,59.4,45.9,29.86,West,270,5.0,5.0,61,0.00,,,0.00,meteohub,2017-05-29 06:37:00,
2017-05-29 01:42:00,60.3,45.9,29.87,West,276,6.0,7.0,59,0.00,,,0.00,meteohub,2017-05-29 06:42:00,
2017-05-29 01:47:00,60.3,45.9,29.86,WSW,257,7.0,9.0,59,0.00,,,0.00,meteohub,2017-05-29 06:47:00,
2017-05-29 01:52:00,61.0,46.0,29.86,WNW,282,5.0,10.0,58,0.00,,,0.00,meteohub,2017-05-29 06:52:00,
2017-05-29 02:02:00,60.6,45.7,29.87,WSW,242,1.0,9.0,58,0.00,,,0.00,meteohub,2017-05-29 07:02:00,
2017-05-29 02:07:00,60.4,46.0,29.87,WSW,253,4.0,7.0,59,0.00,,,0.00,meteohub,2017-05-29 07:07:00,
2017-05-29 02:12:00,60.3,45.9,29.87,WSW,258,2.0,7.0,59,0.00,,,0.00,meteohub,2017-05-29 07:12:00,
2017-05-29 02:17:00,60.3,45.9,29.87,West,271,8.0,8.0,59,0.00,,,0.00,meteohub,2017-05-29 07:17:00,
2017-05-29 02:22:00,60.6,45.7,29.87,West,270,9.0,9.0,58,0.00,,,0.00,meteohub,2017-05-29 07:22:00,
2017-05-29 02:27:00,60.6,45.7,29.87,West,276,6.0,9.0,58,0.00,,,0.00,meteohub,2017-05-29 07:27:00,
2017-05-29 02:32:00,60.6,46.2,29.87,West,267,8.0,10.0,59,0.00,,,0.00,meteohub,2017-05-29 07:32:00,
2017-05-29 02:37:00,60.6,46.2,29.87,West,265,8.0,10.0,59,0.00,,,0.00,meteohub,2017-05-29 07:37:00,
2017-05-29 02:42:00,60.6,46.2,29.88,West,265,5.0,10.0,59,0.00,,,0.00,meteohub,2017-05-29 07:42:00,
2017-05-29 02:47:00,60.3,46.4,29.88,West,267,5.0,9.0,60,0.00,,,0.00,meteohub,2017-05-29 07:47:00,
2017-05-29 02:52:00,59.9,46.0,29.89,West,269,6.0,9.0,60,0.00,,,0.00,meteohub,2017-05-29 07:52:00,
2017-05-29 02:57:00,59.7,46.2,29.89,West,271,7.0,8.0,61,0.00,,,0.00,meteohub,2017-05-29 07:57:00,
2017-05-29 03:02:00,59.7,46.2,29.89,West,278,6.0,8.0,61,0.00,,,0.00,meteohub,2017-05-29 08:02:00,
2017-05-29 03:07:00,60.1,46.2,29.89,West,275,7.0,8.0,60,0.00,,,0.00,meteohub,2017-05-29 08:07:00,
2017-05-29 03:12:00,60.1,46.2,29.89,West,274,6.0,9.0,60,0.00,,,0.00,meteohub,2017-05-29 08:12:00,
2017-05-29 03:17:00,60.3,46.4,29.89,West,273,6.0,9.0,60,0.00,,,0.00,meteohub,2017-05-29 08:17:00,
2017-05-29 03:22:00,60.3,46.4,29.90,West,276,6.0,9.0,60,0.00,,,0.00,meteohub,2017-05-29 08:22:00,
2017-05-29 03:27:00,59.5,46.0,29.90,West,275,5.0,8.0,61,0.00,,,0.00,meteohub,2017-05-29 08:27:00,
2017-05-29 03:32:00,59.5,46.0,29.90,West,271,5.0,8.0,61,0.00,,,0.00,meteohub,2017-05-29 08:32:00,
2017-05-29 03:37:00,59.7,45.9,29.90,West,281,6.0,9.0,60,0.00,,,0.00,meteohub,2017-05-29 08:37:00,
2017-05-29 03:42:00,60.4,46.0,29.90,West,281,4.0,9.0,59,0.00,,,0.00,meteohub,2017-05-29 08:42:00,
2017-05-29 03:47:00,60.6,46.2,29.90,West,277,4.0,9.0,59,0.00,,,0.00,meteohub,2017-05-29 08:47:00,
2017-05-29 03:52:00,60.6,46.2,29.90,West,263,4.0,8.0,59,0.00,,,0.00,meteohub,2017-05-29 08:52:00,
2017-05-29 03:57:00,59.9,46.0,29.91,WSW,244,0.0,8.0,60,0.00,,,0.00,meteohub,2017-05-29 08:57:00,
2017-05-29 04:02:00,59.0,46.0,29.90,West,261,5.0,8.0,62,0.00,,,0.00,meteohub,2017-05-29 09:02:00,
2017-05-29 04:07:00,58.3,46.6,29.91,WSW,252,2.0,8.0,65,0.00,,,0.00,meteohub,2017-05-29 09:07:00,
2017-05-29 04:12:00,57.7,46.0,29.91,WSW,254,0.0,7.0,65,0.00,,,0.00,meteohub,2017-05-29 09:12:00,
2017-05-29 04:17:00,57.6,46.2,29.91,West,273,2.0,7.0,66,0.00,,,0.00,meteohub,2017-05-29 09:17:00,
2017-05-29 04:22:00,57.4,46.6,29.91,West,267,4.0,4.0,67,0.00,,,0.00,meteohub,2017-05-29 09:22:00,
2017-05-29 04:27:00,56.7,46.6,29.91,West,271,4.0,5.0,69,0.00,,,0.00,meteohub,2017-05-29 09:27:00,
2017-05-29 04:32:00,56.8,46.8,29.91,West,276,5.0,6.0,69,0.00,,,0.00,meteohub,2017-05-29 09:32:00,
2017-05-29 04:37:00,57.7,46.9,29.92,West,279,7.0,8.0,67,0.00,,,0.00,meteohub,2017-05-29 09:37:00,
2017-05-29 04:42:00,57.9,46.9,29.92,West,279,5.0,9.0,67,0.00,,,0.00,meteohub,2017-05-29 09:42:00,
2017-05-29 04:48:00,57.7,46.9,29.92,WNW,286,4.0,9.0,67,0.00,,,0.00,meteohub,2017-05-29 09:48:00,
2017-05-29 04:53:00,57.7,46.9,29.92,West,277,6.0,8.0,67,0.00,,,0.00,meteohub,2017-05-29 09:53:00,
2017-05-29 04:58:00,57.7,46.9,29.92,West,277,9.0,9.0,67,0.00,,,0.00,meteohub,2017-05-29 09:58:00,
2017-05-29 05:03:00,57.7,46.9,29.92,West,277,7.0,9.0,67,0.00,,,0.00,meteohub,2017-05-29 10:03:00,
2017-05-29 05:08:00,57.7,47.3,29.92,WNW,286,7.0,9.0,68,0.00,,,0.00,meteohub,2017-05-29 10:08:00,
2017-05-29 05:13:00,57.7,47.3,29.92,West,279,10.0,10.0,68,0.00,,,0.00,meteohub,2017-05-29 10:13:00,
2017-05-29 05:18:00,57.9,47.5,29.92,WNW,282,8.0,12.0,68,0.00,,,0.00,meteohub,2017-05-29 10:18:00,
2017-05-29 05:23:00,57.9,47.5,29.92,WNW,284,8.0,13.0,68,0.00,,,0.00,meteohub,2017-05-29 10:23:00,
2017-05-29 05:28:00,57.9,47.5,29.92,WNW,286,9.0,13.0,68,0.00,,,0.00,meteohub,2017-05-29 10:28:00,
2017-05-29 05:34:00,57.9,47.5,29.92,WNW,288,7.0,13.0,68,0.00,,,0.00,meteohub,2017-05-29 10:34:00,
2017-05-29 05:39:00,57.9,47.5,29.92,West,277,10.0,12.0,68,0.00,,,0.00,meteohub,2017-05-29 10:39:00,
2017-05-29 05:44:00,57.7,47.7,29.93,WNW,289,11.0,13.0,69,0.00,,,0.00,meteohub,2017-05-29 10:44:00,
2017-05-29 05:49:00,57.6,47.5,29.93,WNW,286,10.0,14.0,69,0.00,,,0.00,meteohub,2017-05-29 10:49:00,
2017-05-29 05:54:00,57.4,47.7,29.93,WNW,285,11.0,14.0,70,0.00,,,0.00,meteohub,2017-05-29 10:54:00,
2017-05-29 05:59:00,57.2,47.8,29.93,WNW,286,9.0,14.0,71,0.00,,,0.00,meteohub,2017-05-29 10:59:00,
2017-05-29 06:04:00,57.0,47.7,29.93,West,277,9.0,13.0,71,0.00,,,0.00,meteohub,2017-05-29 11:04:00,
2017-05-29 06:09:00,56.8,47.8,29.93,WNW,285,7.0,13.0,72,0.00,,,0.00,meteohub,2017-05-29 11:09:00,
2017-05-29 06:14:00,56.8,47.8,29.93,WNW,286,10.0,12.0,72,0.00,,,0.00,meteohub,2017-05-29 11:14:00,
2017-05-29 06:20:00,56.8,47.8,29.93,WNW,284,9.0,12.0,72,0.00,,,0.00,meteohub,2017-05-29 11:20:00,
2017-05-29 06:25:00,56.7,48.0,29.94,WNW,295,9.0,13.0,73,0.00,,,0.00,meteohub,2017-05-29 11:25:00,
2017-05-29 06:30:00,56.7,48.0,29.94,West,279,12.0,13.0,73,0.00,,,0.00,meteohub,2017-05-29 11:30:00,
2017-05-29 06:35:00,56.7,48.0,29.94,WNW,286,11.0,13.0,73,0.00,,,0.00,meteohub,2017-05-29 11:35:00,
2017-05-29 06:40:00,56.8,48.2,29.94,WNW,286,8.0,13.0,73,0.00,,,0.00,meteohub,2017-05-29 11:40:00,
2017-05-29 06:45:00,56.7,48.0,29.94,West,277,7.0,14.0,73,0.00,,,0.00,meteohub,2017-05-29 11:45:00,
2017-05-29 06:50:00,56.7,48.4,29.94,WNW,300,8.0,14.0,74,0.00,,,0.00,meteohub,2017-05-29 11:50:00,
2017-05-29 06:55:00,56.7,48.4,29.94,WNW,288,9.0,13.0,74,0.00,,,0.00,meteohub,2017-05-29 11:55:00,
2017-05-29 07:00:00,56.8,48.6,29.95,WNW,286,10.0,13.0,74,0.00,,,0.00,meteohub,2017-05-29 12:00:00,
2017-05-29 07:06:00,57.2,48.9,29.95,WNW,295,12.0,13.0,74,0.00,,,0.00,meteohub,2017-05-29 12:06:00,
2017-05-29 07:11:00,57.4,49.1,29.95,WNW,298,11.0,14.0,74,0.00,,,0.00,meteohub,2017-05-29 12:11:00,
2017-05-29 07:16:00,57.4,49.1,29.95,WNW,290,11.0,14.0,74,0.00,,,0.00,meteohub,2017-05-29 12:16:00,
2017-05-29 07:21:00,57.6,48.9,29.95,WNW,288,14.0,14.0,73,0.00,,,0.00,meteohub,2017-05-29 12:21:00,
2017-05-29 07:26:00,57.9,49.3,29.95,WNW,291,10.0,14.0,73,0.00,,,0.00,meteohub,2017-05-29 12:26:00,
2017-05-29 07:31:00,57.9,49.3,29.95,WNW,283,10.0,14.0,73,0.00,,,0.00,meteohub,2017-05-29 12:31:00,
2017-05-29 07:36:00,58.1,49.1,29.95,WNW,296,10.0,14.0,72,0.00,,,0.00,meteohub,2017-05-29 12:36:00,
2017-05-29 07:41:00,58.5,49.5,29.94,WNW,294,10.0,13.0,72,0.00,,,0.00,meteohub,2017-05-29 12:41:00,
2017-05-29 07:46:00,58.8,49.5,29.94,WNW,288,10.0,14.0,71,0.00,,,0.00,meteohub,2017-05-29 12:46:00,
2017-05-29 07:51:00,59.4,50.0,29.95,WNW,296,11.0,14.0,71,0.00,,,0.00,meteohub,2017-05-29 12:51:00,